Time;durP1;ratioP1;P1;durP2;ratioP2;P2;SDS_P1;SDS_P2;PMS_P1;PMS_P2;Temp;Humidity;BMP_temperature;BMP_pressure;BME280_temperature;BME280_humidity;BME280_pressure;Samples;Min_cycle;Max_cycle;Signal;HPM_P1;HPM_P2
2023/01/24 00:02:04;;;;;;;;;;;;;;;1.66;71.48;103765.16;108182;1267;74718;-85
2023/01/24 00:04:31;;;;;;;;;;;;;;;1.68;71.60;103764.34;107992;1270;124093;-84
2023/01/24 00:06:58;;;;;;;;;;;;;;;1.70;71.29;103766.66;108187;1268;71341;-84
2023/01/24 00:09:25;;;;;;;;;;;;;;;1.68;71.14;103765.12;108239;1266;59377;-85
2023/01/24 00:11:53;;;;;;;;;;;;;;;1.66;71.19;103762.11;107944;1267;124509;-84
2023/01/24 00:14:20;;;;;;;;;;;;;;;1.64;71.25;103758.02;108199;1267;73464;-84
2023/01/24 00:16:47;;;;;;;;;;;;;;;1.63;71.21;103753.60;108149;1270;124334;-84
2023/01/24 00:19:14;;;;;;;;;;;;;;;1.62;71.22;103751.98;108255;1267;71510;-84
2023/01/24 00:21:41;;;;;;;;;;;;;;;1.63;71.08;103753.02;108114;1267;59895;-84
2023/01/24 00:24:07;;;;;;;;;;;;;;;1.63;71.41;103753.09;108038;1267;125545;-84
2023/01/24 00:26:34;;;;;;;;;;;;;;;1.63;71.20;103756.48;108040;1272;75165;-84
2023/01/24 00:29:01;;;;;;;;;;;;;;;1.63;71.33;103759.28;108205;1267;123557;-85
2023/01/24 00:31:28;;;;;;;;;;;;;;;1.61;71.28;103762.02;108224;1267;71465;-84
2023/01/24 00:34:01;;;;;;;;;;;;;;;1.59;71.32;103762.77;108261;1267;59319;-85
2023/01/24 00:36:28;;;;;;;;;;;;;;;1.56;71.52;103764.77;106465;1271;124494;-85
2023/01/24 00:38:55;;;;;;;;;;;;;;;1.57;71.41;103762.46;106876;1269;72781;-85
2023/01/24 00:41:22;;;;;;;;;;;;;;;1.55;71.15;103758.79;106925;1270;125868;-85
2023/01/24 00:43:49;;;;;;;;;;;;;;;1.52;71.22;103763.19;107024;1266;72610;-84
2023/01/24 00:46:16;;;;;;;;;;;;;;;1.51;71.34;103766.13;107213;1269;61284;-83
2023/01/24 00:48:43;;;;;;;;;;;;;;;1.51;71.52;103767.35;107131;1266;124077;-84
2023/01/24 00:51:10;;;;;;;;;;;;;;;1.49;71.44;103763.04;107921;1266;73603;-84
2023/01/24 00:53:37;;;;;;;;;;;;;;;1.48;71.33;103764.08;108095;1265;123797;-85
2023/01/24 00:56:04;;;;;;;;;;;;;;;1.46;71.37;103757.29;107154;1267;73150;-84
2023/01/24 00:58:32;;;;;;;;;;;;;;;1.44;71.32;103759.16;106742;1270;125492;-83
2023/01/24 01:01:02;;;;;;;;;;;;;;;1.44;71.15;103761.56;106883;1267;60108;-84
2023/01/24 01:03:29;;;;;;;;;;;;;;;1.45;71.15;103764.09;107208;1266;74547;-84
2023/01/24 01:06:14;;;;;;;;;;;;;;;1.46;71.38;103761.37;107430;1267;125878;-84
2023/01/24 01:08:41;;;;;;;;;;;;;;;1.45;71.45;103753.48;107549;1269;70968;-84
2023/01/24 01:11:08;;;;;;;;;;;;;;;1.43;71.29;103755.21;107004;1266;124177;-84
2023/01/24 01:13:35;;;;;;;;;;;;;;;1.43;71.56;103750.50;107241;1265;61242;-84
2023/01/24 01:16:01;;;;;;;;;;;;;;;1.42;71.51;103751.33;107342;1266;73154;-84
2023/01/24 01:18:28;;;;;;;;;;;;;;;1.42;71.40;103752.66;107078;1270;125833;-84
2023/01/24 01:20:55;;;;;;;;;;;;;;;1.43;71.45;103755.88;106959;1267;72974;-84
2023/01/24 01:23:22;;;;;;;;;;;;;;;1.44;71.31;103755.16;106905;1268;124965;-84
2023/01/24 01:25:49;;;;;;;;;;;;;;;1.45;71.66;103756.34;107188;1267;61079;-84
2023/01/24 01:28:16;;;;;;;;;;;;;;;1.46;71.37;103757.80;107231;1267;74689;-84
2023/01/24 01:30:43;;;;;;;;;;;;;;;1.43;71.05;103766.27;107005;1270;124801;-84
2023/01/24 01:33:10;;;;;;;;;;;;;;;1.41;71.25;103767.23;107037;1270;72878;-84
2023/01/24 01:35:37;;;;;;;;;;;;;;;1.41;71.26;103767.13;107051;1266;124787;-84
2023/01/24 01:38:04;;;;;;;;;;;;;;;1.44;71.22;103760.98;106929;1270;61218;-84
2023/01/24 01:40:31;;;;;;;;;;;;;;;1.45;71.37;103758.89;106930;1273;125054;-84
2023/01/24 01:42:57;;;;;;;;;;;;;;;1.46;71.43;103760.95;107118;1266;67681;-84
2023/01/24 01:45:31;;;;;;;;;;;;;;;1.48;71.42;103759.79;107173;1270;72814;-84
2023/01/24 01:47:59;;;;;;;;;;;;;;;1.50;71.51;103763.08;107081;1269;125196;-83
2023/01/24 01:50:28;;;;;;;;;;;;;;;1.52;71.55;103757.06;107256;1267;59494;-83
2023/01/24 01:52:55;;;;;;;;;;;;;;;1.54;71.37;103757.13;107095;1270;125554;-83
2023/01/24 01:55:22;;;;;;;;;;;;;;;1.52;71.44;103755.73;107271;1267;65807;-83
2023/01/24 01:57:49;;;;;;;;;;;;;;;1.53;71.27;103755.98;107086;1267;73334;-83
2023/01/24 02:00:17;;;;;;;;;;;;;;;1.55;71.19;103760.37;107126;1270;125722;-82
2023/01/24 02:02:54;;;;;;;;;;;;;;;1.56;71.32;103762.15;107461;1265;59593;-83
2023/01/24 02:05:22;;;;;;;;;;;;;;;1.55;71.11;103759.66;107257;1273;126331;-83
2023/01/24 02:08:01;;;;;;;;;;;;;;;1.56;71.17;103749.16;107334;1270;67983;-83
2023/01/24 02:11:37;;;;;;;;;;;;;;;1.54;71.12;103748.02;107110;1272;73368;-83
2023/01/24 02:13:15;;;;;;;;;;;;;;;1.54;71.39;103748.52;107559;1270;59739;-83
2023/01/24 02:18:28;;;;;;;;;;;;;;;1.52;71.34;103749.88;107221;1268;124873;-83
2023/01/24 02:20:55;;;;;;;;;;;;;;;1.49;71.18;103748.95;107106;1265;67086;-83
2023/01/24 02:23:40;;;;;;;;;;;;;;;1.47;71.01;103747.19;107016;1272;124030;-84
2023/01/24 02:26:16;;;;;;;;;;;;;;;1.42;71.15;103748.90;107336;1270;59485;-83
2023/01/24 02:28:49;;;;;;;;;;;;;;;1.39;71.07;103752.18;107256;1270;124805;-83
2023/01/24 02:31:37;;;;;;;;;;;;;;;1.36;71.00;103748.30;107011;1272;74787;-83
2023/01/24 02:34:07;;;;;;;;;;;;;;;1.35;71.14;103747.73;106894;1267;67805;-83
2023/01/24 02:36:40;;;;;;;;;;;;;;;1.35;71.32;103744.73;106824;1271;125584;-83
2023/01/24 02:39:12;;;;;;;;;;;;;;;1.32;71.09;103740.12;107119;1270;59675;-83
2023/01/24 02:41:42;;;;;;;;;;;;;;;1.28;71.12;103744.55;107097;1267;125302;-83
2023/01/24 02:44:13;;;;;;;;;;;;;;;1.25;71.17;103748.09;107160;1267;72465;-83
2023/01/24 02:46:42;;;;;;;;;;;;;;;1.21;71.20;103754.02;107125;1267;125237;-83
2023/01/24 02:49:10;;;;;;;;;;;;;;;1.19;71.07;103759.23;107032;1273;72740;-83
2023/01/24 02:54:23;;;;;;;;;;;;;;;1.14;71.09;103760.56;107058;1266;125044;-83
2023/01/24 02:59:35;;;;;;;;;;;;;;;1.10;71.12;103758.87;107288;1269;123959;-83
2023/01/24 03:02:07;;;;;;;;;;;;;;;1.06;70.95;103760.86;107372;1267;71479;-83
2023/01/24 03:05:09;;;;;;;;;;;;;;;1.04;71.09;103759.40;107293;1267;125254;-83
2023/01/24 03:07:55;;;;;;;;;;;;;;;1.06;71.20;103756.62;107143;1273;61176;-82
2023/01/24 03:10:22;;;;;;;;;;;;;;;1.06;71.13;103750.98;107028;1267;75522;-82
2023/01/24 03:35:36;;;;;;;;;;;;;;;1.24;71.09;103736.02;107987;1267;124828;-84
2023/01/24 03:40:52;;;;;;;;;;;;;;;1.27;70.92;103723.04;107966;1267;125386;-83
2023/01/24 03:43:20;;;;;;;;;;;;;;;1.28;70.82;103719.11;108029;1267;72378;-83
2023/01/24 03:45:51;;;;;;;;;;;;;;;1.27;70.87;103715.70;108107;1266;59360;-83
2023/01/24 03:48:25;;;;;;;;;;;;;;;1.30;70.93;103718.84;107848;1267;125325;-85
2023/01/24 03:53:38;;;;;;;;;;;;;;;1.30;70.86;103729.02;108018;1267;124933;-85
2023/01/24 03:56:05;;;;;;;;;;;;;;;1.30;70.98;103731.31;108067;1271;73283;-85
2023/01/24 03:58:32;;;;;;;;;;;;;;;1.30;70.91;103731.46;108146;1266;59453;-86
2023/01/24 04:00:59;;;;;;;;;;;;;;;1.29;70.79;103728.63;108045;1267;124291;-85
2023/01/24 04:03:25;;;;;;;;;;;;;;;1.28;70.79;103721.74;108232;1267;75188;-83
2023/01/24 04:05:52;;;;;;;;;;;;;;;1.24;70.67;103723.40;108042;1267;124538;-84
2023/01/24 04:08:19;;;;;;;;;;;;;;;1.18;70.76;103725.34;108225;1267;73284;-85
2023/01/24 04:10:46;;;;;;;;;;;;;;;1.14;70.70;103727.61;108122;1267;124090;-84
2023/01/24 04:13:13;;;;;;;;;;;;;;;1.11;70.73;103723.18;107969;1267;61476;-84
2023/01/24 04:15:40;;;;;;;;;;;;;;;1.09;70.80;103718.62;108159;1265;72453;-85
2023/01/24 04:18:07;;;;;;;;;;;;;;;1.05;70.73;103719.41;108064;1270;124508;-85
2023/01/24 04:20:35;;;;;;;;;;;;;;;1.03;70.73;103721.70;108197;1267;73259;-85
2023/01/24 04:23:04;;;;;;;;;;;;;;;1.00;70.47;103728.84;108012;1267;124293;-84
2023/01/24 04:25:31;;;;;;;;;;;;;;;0.95;70.53;103730.43;108121;1270;60399;-85
2023/01/24 04:27:58;;;;;;;;;;;;;;;0.90;70.40;103735.77;107947;1267;74941;-85
2023/01/24 04:30:25;;;;;;;;;;;;;;;0.87;70.57;103735.98;107985;1265;125620;-84
2023/01/24 04:32:52;;;;;;;;;;;;;;;0.85;70.66;103736.52;108013;1267;71774;-85
2023/01/24 04:35:20;;;;;;;;;;;;;;;0.82;70.66;103739.77;107874;1267;125428;-85
2023/01/24 04:37:47;;;;;;;;;;;;;;;0.78;70.59;103741.65;107998;1272;59773;-85
2023/01/24 04:40:14;;;;;;;;;;;;;;;0.75;70.53;103744.80;108181;1272;73396;-85
2023/01/24 04:42:42;;;;;;;;;;;;;;;0.74;70.48;103740.53;108173;1266;125619;-84
2023/01/24 04:45:09;;;;;;;;;;;;;;;0.72;70.56;103741.65;108190;1267;71378;-84
2023/01/24 04:47:36;;;;;;;;;;;;;;;0.69;70.61;103743.33;108132;1267;126166;-84
2023/01/24 04:50:03;;;;;;;;;;;;;;;0.66;70.65;103742.20;108139;1270;59302;-87
2023/01/24 04:52:30;;;;;;;;;;;;;;;0.62;70.36;103739.48;108162;1267;75103;-83
2023/01/24 04:54:57;;;;;;;;;;;;;;;0.57;70.44;103739.09;107962;1267;125210;-82
2023/01/24 04:57:24;;;;;;;;;;;;;;;0.54;70.33;103741.06;107975;1267;72831;-83
2023/01/24 04:59:51;;;;;;;;;;;;;;;0.52;70.37;103734.68;107926;1266;125305;-83
2023/01/24 05:02:17;;;;;;;;;;;;;;;0.50;70.55;103731.21;108130;1266;61052;-89
2023/01/24 05:04:44;;;;;;;;;;;;;;;0.50;70.65;103737.13;108055;1266;124236;-85
2023/01/24 05:07:12;;;;;;;;;;;;;;;0.52;70.48;103732.76;108096;1266;67615;-84
2023/01/24 05:09:39;;;;;;;;;;;;;;;0.52;70.60;103732.42;108047;1265;72355;-85
2023/01/24 05:12:05;;;;;;;;;;;;;;;0.53;70.74;103739.00;107936;1266;124898;-89
2023/01/24 05:14:32;;;;;;;;;;;;;;;0.53;70.57;103737.45;107997;1271;59540;-82
2023/01/24 05:16:59;;;;;;;;;;;;;;;0.53;70.67;103747.57;108108;1267;125419;-82
2023/01/24 05:19:26;;;;;;;;;;;;;;;0.50;70.27;103758.20;108194;1267;65984;-82
2023/01/24 05:21:53;;;;;;;;;;;;;;;0.44;70.34;103765.98;108083;1267;72718;-82
2023/01/24 05:24:20;;;;;;;;;;;;;;;0.41;70.51;103777.99;107970;1267;125776;-85
2023/01/24 05:26:46;;;;;;;;;;;;;;;0.37;70.47;103779.02;108198;1269;60050;-80
2023/01/24 05:29:13;;;;;;;;;;;;;;;0.35;70.57;103777.34;107884;1267;125271;-82
2023/01/24 05:31:40;;;;;;;;;;;;;;;0.35;70.61;103783.62;107980;1271;65815;-79
2023/01/24 05:34:07;;;;;;;;;;;;;;;0.36;70.52;103782.54;108123;1266;72022;-79
2023/01/24 05:36:34;;;;;;;;;;;;;;;0.38;70.62;103784.79;107976;1266;126988;-82
2023/01/24 05:39:01;;;;;;;;;;;;;;;0.41;70.69;103787.48;108233;1267;59392;-82
2023/01/24 05:41:28;;;;;;;;;;;;;;;0.42;70.79;103784.69;107962;1268;124685;-82
2023/01/24 05:43:55;;;;;;;;;;;;;;;0.43;70.74;103785.48;108196;1266;65811;-82
2023/01/24 05:46:22;;;;;;;;;;;;;;;0.45;70.67;103783.27;108165;1266;74186;-82
2023/01/24 05:48:49;;;;;;;;;;;;;;;0.45;70.53;103779.56;107876;1267;123971;-82
2023/01/24 05:51:16;;;;;;;;;;;;;;;0.44;70.33;103774.20;108081;1267;59972;-82
2023/01/24 05:53:43;;;;;;;;;;;;;;;0.42;70.32;103775.33;107845;1282;124835;-82
2023/01/24 05:56:13;;;;;;;;;;;;;;;0.43;70.52;103775.24;108024;1266;67284;-84
2023/01/24 05:58:40;;;;;;;;;;;;;;;0.42;70.37;103777.29;108062;1272;73218;-82
2023/01/24 06:01:11;;;;;;;;;;;;;;;0.39;70.35;103776.41;108074;1266;59515;-82
2023/01/24 06:03:38;;;;;;;;;;;;;;;0.35;70.18;103771.85;108020;1267;62047;-82
2023/01/24 06:06:05;;;;;;;;;;;;;;;0.34;70.35;103766.49;107963;1270;124501;-82
2023/01/24 06:08:32;;;;;;;;;;;;;;;0.35;70.28;103762.15;108126;1266;65774;-81
2023/01/24 06:11:03;;;;;;;;;;;;;;;0.36;70.33;103756.41;108086;1266;124821;-81
2023/01/24 06:13:30;;;;;;;;;;;;;;;0.33;70.12;103760.23;108138;1266;59767;-84
2023/01/24 06:16:00;;;;;;;;;;;;;;;0.30;70.29;103755.84;108245;1264;59363;-83
2023/01/24 06:18:27;;;;;;;;;;;;;;;0.30;70.21;103755.40;108118;1266;126039;-83
2023/01/24 06:20:55;;;;;;;;;;;;;;;0.29;70.29;103749.04;108153;1267;65926;-83
2023/01/24 06:23:23;;;;;;;;;;;;;;;0.33;70.58;103748.61;108098;1267;125379;-83
2023/01/24 06:25:50;;;;;;;;;;;;;;;0.34;70.44;103741.02;108245;1265;59433;-83
2023/01/24 06:28:17;;;;;;;;;;;;;;;0.36;70.42;103741.20;108026;1270;60123;-83
2023/01/24 06:30:46;;;;;;;;;;;;;;;0.35;70.34;103737.27;107877;1267;125801;-83
2023/01/24 06:33:13;;;;;;;;;;;;;;;0.34;70.52;103742.69;108073;1267;65047;-83
2023/01/24 06:35:40;;;;;;;;;;;;;;;0.32;70.41;103742.51;108109;1267;124049;-83
2023/01/24 06:38:08;;;;;;;;;;;;;;;0.30;70.41;103746.04;108290;1267;59553;-83
2023/01/24 06:40:35;;;;;;;;;;;;;;;0.29;70.38;103744.50;108099;1271;59447;-83
2023/01/24 06:43:02;;;;;;;;;;;;;;;0.27;70.71;103749.35;108094;1267;124816;-83
2023/01/24 06:45:29;;;;;;;;;;;;;;;0.27;70.40;103756.16;108189;1267;67651;-83
2023/01/24 06:47:57;;;;;;;;;;;;;;;0.25;70.49;103763.61;108054;1266;126677;-83
2023/01/24 06:50:25;;;;;;;;;;;;;;;0.27;70.52;103770.01;108086;1267;59563;-83
2023/01/24 06:52:53;;;;;;;;;;;;;;;0.28;70.67;103775.41;108032;1265;126178;-83
2023/01/24 06:55:20;;;;;;;;;;;;;;;0.31;70.53;103786.41;108322;1266;74327;-83
2023/01/24 06:57:47;;;;;;;;;;;;;;;0.33;70.51;103788.88;108311;1267;66112;-83
2023/01/24 07:00:14;;;;;;;;;;;;;;;0.37;70.52;103791.23;108009;1267;125065;-83
2023/01/24 07:02:42;;;;;;;;;;;;;;;0.39;70.67;103793.19;108115;1267;59276;-83
2023/01/24 07:05:09;;;;;;;;;;;;;;;0.42;70.52;103797.02;108213;1265;125380;-83
2023/01/24 07:07:35;;;;;;;;;;;;;;;0.43;70.29;103794.36;108281;1267;74147;-84
2023/01/24 07:10:02;;;;;;;;;;;;;;;0.47;70.64;103798.25;108158;1266;65933;-83
2023/01/24 07:12:29;;;;;;;;;;;;;;;0.51;70.62;103793.73;107803;1265;125140;-83
2023/01/24 07:14:56;;;;;;;;;;;;;;;0.54;70.64;103799.54;108016;1282;59370;-83
2023/01/24 07:17:23;;;;;;;;;;;;;;;0.57;70.59;103810.64;108155;1267;125377;-83
2023/01/24 07:19:53;;;;;;;;;;;;;;;0.57;70.40;103820.04;108089;1267;73508;-81
2023/01/24 07:22:20;;;;;;;;;;;;;;;0.56;70.40;103829.92;108259;1267;67357;-82
2023/01/24 07:24:47;;;;;;;;;;;;;;;0.60;70.27;103838.60;108134;1265;125045;-83
2023/01/24 07:27:14;;;;;;;;;;;;;;;0.60;70.23;103844.64;108128;1266;59245;-83
2023/01/24 07:29:41;;;;;;;;;;;;;;;0.61;70.21;103854.41;108031;1266;124532;-83
2023/01/24 07:32:09;;;;;;;;;;;;;;;0.55;69.85;103856.37;108277;1267;73867;-83
2023/01/24 07:34:36;;;;;;;;;;;;;;;0.44;69.66;103856.14;108298;1267;65818;-83
2023/01/24 07:37:05;;;;;;;;;;;;;;;0.38;69.65;103850.91;108061;1266;123977;-83
2023/01/24 07:39:31;;;;;;;;;;;;;;;0.33;69.69;103848.30;108236;1267;59162;-83
2023/01/24 07:41:58;;;;;;;;;;;;;;;0.29;69.75;103836.77;107983;1266;124355;-83
2023/01/24 07:44:25;;;;;;;;;;;;;;;0.31;69.95;103834.64;108117;1267;74720;-83
2023/01/24 07:46:52;;;;;;;;;;;;;;;0.35;70.20;103832.63;108157;1266;125321;-83
2023/01/24 07:49:19;;;;;;;;;;;;;;;0.41;70.05;103833.93;108241;1266;72618;-82
2023/01/24 07:51:48;;;;;;;;;;;;;;;0.43;69.96;103851.17;108166;1266;59374;-82
2023/01/24 07:54:17;;;;;;;;;;;;;;;0.42;69.93;103864.55;108041;1266;124469;-83
2023/01/24 07:56:44;;;;;;;;;;;;;;;0.38;69.65;103866.15;108125;1266;74751;-83
2023/01/24 07:59:11;;;;;;;;;;;;;;;0.34;69.69;103866.23;108156;1267;124096;-81
2023/01/24 08:01:37;;;;;;;;;;;;;;;0.32;69.68;103861.48;108141;1269;74013;-81
2023/01/24 08:04:04;;;;;;;;;;;;;;;0.34;70.02;103857.06;108129;1266;59634;-81
2023/01/24 08:06:31;;;;;;;;;;;;;;;0.37;69.92;103868.11;107943;1265;124499;-81
2023/01/24 08:08:58;;;;;;;;;;;;;;;0.39;69.71;103876.91;108272;1266;73767;-81
2023/01/24 08:11:25;;;;;;;;;;;;;;;0.39;69.47;103886.95;108211;1265;126106;-81
2023/01/24 08:13:52;;;;;;;;;;;;;;;0.38;69.62;103891.36;108247;1266;71376;-81
2023/01/24 08:16:23;;;;;;;;;;;;;;;0.40;69.70;103898.10;108203;1267;59107;-80
2023/01/24 08:18:50;;;;;;;;;;;;;;;0.38;69.29;103902.91;108057;1267;126053;-80
2023/01/24 08:21:17;;;;;;;;;;;;;;;0.33;69.50;103901.30;107988;1267;73345;-81
2023/01/24 08:23:44;;;;;;;;;;;;;;;0.35;69.49;103904.01;107996;1265;124018;-84
2023/01/24 08:26:10;;;;;;;;;;;;;;;0.35;69.47;103919.02;107950;1282;73114;-81
2023/01/24 08:28:37;;;;;;;;;;;;;;;0.27;69.03;103917.94;107972;1266;60108;-88
2023/01/24 08:31:04;;;;;;;;;;;;;;;0.23;69.21;103918.77;107508;1269;584895;-81
2023/01/24 08:33:37;;;;;;;;;;;;;;;0.21;69.30;103914.79;108233;1265;74998;-82
2023/01/24 08:36:07;;;;;;;;;;;;;;;0.21;69.53;103912.11;107781;1267;124184;-81
2023/01/24 08:38:34;;;;;;;;;;;;;;;0.23;69.58;103915.48;107925;1267;72221;-80
2023/01/24 08:41:04;;;;;;;;;;;;;;;0.22;69.34;103921.95;108154;1265;124585;-82
2023/01/24 08:43:31;;;;;;;;;;;;;;;0.15;69.40;103921.20;108122;1267;60018;-82
2023/01/24 08:46:01;;;;;;;;;;;;;;;0.17;69.48;103922.23;108068;1265;74951;-83
2023/01/24 08:48:41;;;;;;;;;;;;;;;0.28;69.44;103913.39;107897;1267;124678;-82
2023/01/24 08:51:08;;;;;;;;;;;;;;;0.34;69.53;103909.00;108047;1266;73181;-81
2023/01/24 08:53:35;;;;;;;;;;;;;;;0.44;69.57;103901.85;108159;1267;123975;-81
2023/01/24 08:56:13;;;;;;;;;;;;;;;0.54;69.60;103898.25;108290;1266;59842;-83
2023/01/24 08:58:54;;;;;;;;;;;;;;;0.67;69.41;103905.11;108115;1267;124388;-80
2023/01/24 09:01:21;;;;;;;;;;;;;;;0.74;69.41;103898.90;108199;1266;66748;-79
2023/01/24 09:04:26;;;;;;;;;;;;;;;;;;;;;
2023/01/24 09:07:11;;;;;;;;;;;;;;;0.93;69.25;103888.18;108084;1270;124659;-80
2023/01/24 09:09:38;;;;;;;;;;;;;;;1.02;69.30;103879.52;108189;1266;60121;-81
2023/01/24 09:12:05;;;;;;;;;;;;;;;1.10;69.34;103874.06;108074;1270;124104;-84
2023/01/24 09:14:32;;;;;;;;;;;;;;;1.16;69.04;103874.05;108200;1266;65491;-85
2023/01/24 09:16:59;;;;;;;;;;;;;;;1.23;69.11;103872.66;108098;1267;124706;-84
2023/01/24 09:19:26;;;;;;;;;;;;;;;1.32;68.98;103861.46;108100;1267;59181;-80
2023/01/24 09:21:56;;;;;;;;;;;;;;;1.36;68.95;103856.75;108190;1266;59142;-80
2023/01/24 09:24:23;;;;;;;;;;;;;;;1.41;68.87;103852.95;108249;1267;124057;-80
2023/01/24 09:26:50;;;;;;;;;;;;;;;1.48;68.91;103845.41;108207;1265;65769;-80
2023/01/24 09:29:17;;;;;;;;;;;;;;;1.54;68.78;103844.88;108074;1266;124559;-81
2023/01/24 09:31:44;;;;;;;;;;;;;;;1.58;68.73;103847.05;108336;1265;59544;-80
2023/01/24 09:34:11;;;;;;;;;;;;;;;1.64;68.59;103857.09;108236;1281;59419;-81
2023/01/24 09:36:38;;;;;;;;;;;;;;;1.69;68.52;103861.95;108240;1266;125442;-80
2023/01/24 09:39:05;;;;;;;;;;;;;;;1.74;68.22;103860.42;108344;1267;67790;-81
2023/01/24 09:41:50;;;;;;;;;;;;;;;1.77;68.31;103866.39;108209;1266;125553;-80
2023/01/24 09:44:23;;;;;;;;;;;;;;;1.81;68.18;103859.63;108122;1266;59612;-80
2023/01/24 09:46:51;;;;;;;;;;;;;;;1.87;68.17;103853.39;108241;1281;61074;-81
2023/01/24 09:49:34;;;;;;;;;;;;;;;1.92;68.08;103842.84;108038;1267;75096;-80
2023/01/24 09:52:05;;;;;;;;;;;;;;;2.00;68.13;103836.21;108109;1265;67229;-81
2023/01/24 09:54:36;;;;;;;;;;;;;;;2.05;68.03;103832.86;108011;1266;124879;-81
2023/01/24 09:57:10;;;;;;;;;;;;;;;2.11;67.90;103834.48;108274;1267;59467;-81
2023/01/24 09:59:44;;;;;;;;;;;;;;;2.17;68.00;103834.45;108044;1265;124851;-81
2023/01/24 10:02:16;;;;;;;;;;;;;;;2.24;67.90;103830.02;108145;1270;73486;-81
2023/01/24 10:04:43;;;;;;;;;;;;;;;2.28;67.83;103837.35;108313;1267;66985;-80
2023/01/24 10:07:11;;;;;;;;;;;;;;;2.30;67.63;103836.85;108002;1266;124134;-81
2023/01/24 10:10:02;;;;;;;;;;;;;;;2.29;67.32;103833.10;108315;1266;59139;-81
2023/01/24 10:13:01;;;;;;;;;;;;;;;2.24;67.24;103829.29;107957;1266;124548;-81
2023/01/24 10:15:42;;;;;;;;;;;;;;;2.20;67.13;103818.77;107451;1273;75154;-80
2023/01/24 10:18:17;;;;;;;;;;;;;;;2.20;67.01;103809.66;107219;1273;125082;-80
2023/01/24 10:20:53;;;;;;;;;;;;;;;2.18;66.93;103806.83;107490;1273;72449;-81
2023/01/24 10:23:24;;;;;;;;;;;;;;;2.19;67.19;103806.25;107383;1273;126845;-82
2023/01/24 10:25:56;;;;;;;;;;;;;;;2.22;67.03;103804.84;107442;1273;60363;-82
2023/01/24 10:28:29;;;;;;;;;;;;;;;2.24;66.88;103804.70;107453;1273;74800;-84
2023/01/24 10:30:56;;;;;;;;;;;;;;;2.25;66.89;103802.75;107374;1287;124261;-84
2023/01/24 10:33:24;;;;;;;;;;;;;;;2.26;66.90;103806.09;107564;1272;71280;-84
2023/01/24 10:35:58;;;;;;;;;;;;;;;2.27;66.83;103811.90;107330;1273;124602;-84
2023/01/24 10:38:27;;;;;;;;;;;;;;;2.24;66.75;103815.43;107420;1273;59596;-83
2023/01/24 10:41:20;;;;;;;;;;;;;;;2.21;66.55;103820.48;107292;1273;74785;-83
2023/01/24 10:43:53;;;;;;;;;;;;;;;2.21;66.62;103829.86;107447;1273;69633;-86
2023/01/24 10:46:53;;;;;;;;;;;;;;;2.19;66.44;103830.20;107409;1273;73998;-82
2023/01/24 10:53:28;;;;;;;;;;;;;;;2.13;66.43;103831.41;106978;1278;124689;-83
2023/01/24 10:56:18;;;;;;;;;;;;;;;2.16;66.60;103837.44;107522;1272;74729;-82
2023/01/24 10:58:54;;;;;;;;;;;;;;;2.14;66.47;103837.42;107711;1273;65856;-82
2023/01/24 11:01:26;;;;;;;;;;;;;;;2.10;66.44;103834.79;107346;1273;124519;-83
2023/01/24 11:03:59;;;;;;;;;;;;;;;2.01;66.04;103838.39;107448;1273;59487;-84
2023/01/24 11:06:29;;;;;;;;;;;;;;;1.89;66.22;103839.02;107317;1273;124002;-83
2023/01/24 11:09:04;;;;;;;;;;;;;;;1.86;66.33;103844.40;107334;1275;73321;-83
2023/01/24 11:11:34;;;;;;;;;;;;;;;1.81;66.31;103841.25;107247;1273;125314;-83
2023/01/24 11:14:01;;;;;;;;;;;;;;;1.78;66.33;103834.51;107337;1273;73299;-83
2023/01/24 11:16:41;;;;;;;;;;;;;;;1.72;66.31;103831.36;107379;1273;59145;-83
2023/01/24 11:19:20;;;;;;;;;;;;;;;1.66;66.35;103824.17;107303;1273;127996;-83
2023/01/24 11:21:50;;;;;;;;;;;;;;;1.64;66.39;103825.02;107324;1273;74807;-83
2023/01/24 11:24:19;;;;;;;;;;;;;;;1.63;66.42;103822.98;107388;1273;126017;-83
2023/01/24 11:26:56;;;;;;;;;;;;;;;1.53;65.99;103817.92;107476;1273;71662;-82
2023/01/24 11:29:24;;;;;;;;;;;;;;;1.43;66.06;103807.97;107541;1266;124734;-83
2023/01/24 11:32:12;;;;;;;;;;;;;;;1.39;66.31;103809.91;108094;1266;59573;-84
2023/01/24 11:34:53;;;;;;;;;;;;;;;1.30;66.16;103803.80;107924;1266;74244;-83
2023/01/24 11:37:41;;;;;;;;;;;;;;;1.31;66.31;103801.81;108190;1265;124662;-83
2023/01/24 11:40:20;;;;;;;;;;;;;;;1.23;65.91;103800.08;108287;1266;72847;-83
2023/01/24 11:42:58;;;;;;;;;;;;;;;1.15;66.21;103798.33;108321;1264;123314;-82
2023/01/24 11:45:32;;;;;;;;;;;;;;;1.15;66.35;103793.33;108424;1264;62669;-83
2023/01/24 11:48:13;;;;;;;;;;;;;;;1.15;66.25;103787.23;108093;1266;124156;-83
2023/01/24 11:50:59;;;;;;;;;;;;;;;1.12;66.12;103783.27;108093;1267;70007;-83
2023/01/24 11:53:55;;;;;;;;;;;;;;;1.00;66.14;103781.71;108200;1266;124486;-83
2023/01/24 11:56:38;;;;;;;;;;;;;;;0.94;66.22;103777.01;107457;1273;59183;-83
2023/01/24 11:59:47;;;;;;;;;;;;;;;0.94;66.36;103770.91;108046;1265;124218;-85
2023/01/24 12:03:17;;;;;;;;;;;;;;;1.02;66.71;103767.28;108161;1266;75084;-83
2023/01/24 12:06:06;;;;;;;;;;;;;;;1.13;66.65;103773.41;108134;1267;125331;-82
2023/01/24 12:08:59;;;;;;;;;;;;;;;1.18;66.43;103772.35;107932;1267;72320;-83
2023/01/24 12:12:00;;;;;;;;;;;;;;;1.17;66.57;103769.14;107926;1269;124765;-83
2023/01/24 12:15:12;;;;;;;;;;;;;;;1.14;66.24;103766.19;108129;1266;59601;-82
2023/01/24 12:18:17;;;;;;;;;;;;;;;;;;;;;
2023/01/24 12:21:10;;;;;;;;;;;;;;;0.82;66.44;103751.67;107888;1267;68168;-83
2023/01/24 12:23:43;;;;;;;;;;;;;;;0.95;66.80;103747.99;107977;1267;124911;-86
2023/01/24 12:26:31;;;;;;;;;;;;;;;1.10;66.97;103744.08;108090;1271;59342;-83
2023/01/24 12:29:16;;;;;;;;;;;;;;;1.21;67.01;103748.09;108255;1267;59425;-83
2023/01/24 12:32:01;;;;;;;;;;;;;;;1.32;67.08;103748.65;107959;1266;125498;-83
2023/01/24 12:34:37;;;;;;;;;;;;;;;1.36;66.72;103744.05;107863;1267;66726;-83
2023/01/24 12:37:21;;;;;;;;;;;;;;;1.37;66.73;103743.64;107961;1270;125594;-83
2023/01/24 12:40:07;;;;;;;;;;;;;;;1.40;66.79;103742.92;108106;1267;59451;-83
2023/01/24 12:42:53;;;;;;;;;;;;;;;1.45;66.70;103740.38;108012;1267;124309;-83
2023/01/24 12:45:41;;;;;;;;;;;;;;;1.50;66.83;103740.05;108005;1270;76180;-83
2023/01/24 12:48:26;;;;;;;;;;;;;;;1.52;66.72;103739.04;107318;1273;124011;-82
2023/01/24 12:50:59;;;;;;;;;;;;;;;1.53;66.81;103737.59;107336;1276;72378;-82
2023/01/24 12:53:31;;;;;;;;;;;;;;;1.56;66.84;103734.98;107060;1273;124602;-82
2023/01/24 12:56:22;;;;;;;;;;;;;;;1.58;66.83;103736.61;107286;1273;59230;-83
2023/01/24 12:58:49;;;;;;;;;;;;;;;1.61;66.83;103732.14;107405;1273;74626;-83
2023/01/24 13:01:16;;;;;;;;;;;;;;;1.58;66.63;103728.64;107349;1273;124728;-83
2023/01/24 13:04:01;;;;;;;;;;;;;;;1.51;66.65;103731.05;107249;1275;73070;-81
2023/01/24 13:06:28;;;;;;;;;;;;;;;1.47;66.74;103727.50;107265;1272;124014;-82
2023/01/24 13:09:18;;;;;;;;;;;;;;;1.49;66.79;103723.88;107464;1273;60174;-83
2023/01/24 13:11:45;;;;;;;;;;;;;;;1.52;66.90;103728.17;107209;1272;125105;-80
2023/01/24 13:14:25;;;;;;;;;;;;;;;1.55;66.90;103727.17;107286;1278;66253;-82
2023/01/24 13:16:52;;;;;;;;;;;;;;;1.54;66.78;103722.52;107388;1273;73167;-83
2023/01/24 13:19:28;;;;;;;;;;;;;;;1.53;66.76;103723.42;107273;1274;125414;-81
2023/01/24 13:22:09;;;;;;;;;;;;;;;1.48;66.77;103726.85;107381;1273;60391;-81
2023/01/24 13:24:44;;;;;;;;;;;;;;;1.46;66.81;103725.13;107284;1273;124349;-83
2023/01/24 13:27:19;;;;;;;;;;;;;;;1.45;66.96;103723.80;108004;1266;69841;-81
2023/01/24 13:30:02;;;;;;;;;;;;;;;1.44;66.82;103721.02;108070;1267;124291;-81
2023/01/24 13:32:29;;;;;;;;;;;;;;;1.39;66.79;103714.58;108100;1266;59401;-83
2023/01/24 13:34:56;;;;;;;;;;;;;;;1.39;67.11;103716.36;108238;1267;59371;-83
2023/01/24 13:37:33;;;;;;;;;;;;;;;1.42;67.23;103716.80;108072;1266;124733;-84
2023/01/24 13:40:17;;;;;;;;;;;;;;;1.42;67.33;103713.88;108203;1266;66349;-84